Time;durP1;ratioP1;P1;durP2;ratioP2;P2;SDS_P1;SDS_P2;PMS_P1;PMS_P2;Temp;Humidity;BMP_temperature;BMP_pressure;BME280_temperature;BME280_humidity;BME280_pressure;Samples;Min_cycle;Max_cycle;Signal;HPM_P1;HPM_P2
2022/09/09 00:00:11;;;;;;;967.97;903.97;;;;;;;18.16;73.47;100598.34;692705;28;21526;-64
2022/09/09 00:00:36;;;;;;;969.78;905.70;;;;;;;18.17;73.57;100594.56;688864;28;137995;-63
2022/09/09 00:01:03;;;;;;;970.33;906.20;;;;;;;18.15;73.56;100597.53;690127;28;92149;-64
2022/09/09 00:01:31;;;;;;;967.08;903.08;;;;;;;18.16;73.66;100595.63;688630;28;138027;-64
2022/09/09 00:02:00;;;;;;;970.10;906.13;;;;;;;18.13;73.31;100594.16;687904;28;137921;-64
2022/09/09 00:02:24;;;;;;;973.13;909.00;;;;;;;18.14;73.58;100592.28;685174;28;161408;-65
2022/09/09 00:02:52;;;;;;;974.88;910.65;;;;;;;18.13;73.41;100601.53;687480;28;92295;-65
2022/09/09 00:03:17;;;;;;;974.25;909.97;;;;;;;18.12;73.39;100597.97;685051;28;160384;-65
2022/09/09 00:03:46;;;;;;;972.83;908.72;;;;;;;18.11;73.57;100599.03;688221;28;115230;-64
2022/09/09 00:04:14;;;;;;;970.72;906.65;;;;;;;18.09;73.58;100598.44;688401;28;138019;-65
2022/09/09 00:04:36;;;;;;;968.15;904.15;;;;;;;18.08;73.64;100594.03;688729;28;136361;-65
2022/09/09 00:05:01;;;;;;;968.05;904.08;;;;;;;18.08;73.67;100599.50;692034;28;45225;-65
2022/09/09 00:05:29;;;;;;;973.42;909.17;;;;;;;18.08;73.74;100602.22;689409;28;113664;-64
2022/09/09 00:05:57;;;;;;;971.25;907.17;;;;;;;18.07;73.79;100602.47;688813;28;137966;-65
2022/09/09 00:06:22;;;;;;;976.13;911.72;;;;;;;18.05;73.80;100589.03;688634;28;137204;-64
2022/09/09 00:06:45;;;;;;;970.88;906.80;;;;;;;18.06;73.64;100601.63;690864;28;92145;-65
2022/09/09 00:07:17;;;;;;;980.90;916.00;;;;;;;18.05;73.73;100599.97;690803;28;111884;-64
2022/09/09 00:07:42;;;;;;;966.67;902.58;;;;;;;18.04;73.89;100601.03;691210;28;137346;-64
2022/09/09 00:08:03;;;;;;;966.30;902.33;;;;;;;18.03;73.70;100601.28;691390;28;136459;-65
2022/09/09 00:08:33;;;;;;;969.15;905.05;;;;;;;18.01;73.87;100601.50;693477;28;46307;-65
2022/09/09 00:09:02;;;;;;;969.42;905.30;;;;;;;17.95;73.82;100599.69;688523;28;137853;-65
2022/09/09 00:09:27;;;;;;;974.50;910.25;;;;;;;18.00;74.03;100603.38;688882;28;128278;-64
2022/09/09 00:09:55;;;;;;;968.72;904.67;;;;;;;17.97;74.04;100597.56;689566;28;114656;-64
2022/09/09 00:10:21;;;;;;;963.25;899.35;;;;;;;17.96;74.19;100604.91;688709;28;137971;-65
2022/09/09 00:10:42;;;;;;;971.63;907.53;;;;;;;17.95;73.94;100597.78;688706;28;138048;-64
2022/09/09 00:11:07;;;;;;;973.90;909.67;;;;;;;17.93;74.11;100599.06;692516;28;20891;-65
2022/09/09 00:11:33;;;;;;;972.88;908.60;;;;;;;17.92;74.40;100600.97;689399;28;113582;-65
2022/09/09 00:11:59;;;;;;;975.88;911.58;;;;;;;17.91;74.25;100598.47;685201;28;136316;-64
2022/09/09 00:12:27;;;;;;;970.63;906.33;;;;;;;17.91;74.47;100602.03;685684;28;138225;-63
2022/09/09 00:12:55;;;;;;;966.72;902.72;;;;;;;17.90;74.54;100603.09;685992;28;136157;-65
2022/09/09 00:13:21;;;;;;;970.17;906.03;;;;;;;17.89;74.63;100598.69;685978;28;137679;-64
2022/09/09 00:13:46;;;;;;;971.72;907.47;;;;;;;17.90;74.70;100597.63;685794;28;138098;-65
2022/09/09 00:14:13;;;;;;;982.72;918.13;;;;;;;17.89;74.71;100606.88;686687;28;113560;-65
2022/09/09 00:14:38;;;;;;;972.72;908.55;;;;;;;17.88;74.92;100599.75;687011;28;136331;-64
2022/09/09 00:15:02;;;;;;;974.08;909.88;;;;;;;17.88;74.78;100605.22;690147;28;90082;-65
2022/09/09 00:15:26;;;;;;;975.28;911.08;;;;;;;17.89;74.88;100598.69;689450;28;115025;-66
2022/09/09 00:15:56;;;;;;;974.67;910.58;;;;;;;17.88;75.03;100597.00;689261;28;115037;-66
2022/09/09 00:16:21;;;;;;;967.67;903.80;;;;;;;17.89;74.94;100600.59;688487;28;136121;-66
2022/09/09 00:16:48;;;;;;;971.38;907.38;;;;;;;17.86;74.79;100595.56;686746;28;115257;-64
2022/09/09 00:17:13;;;;;;;970.80;906.72;;;;;;;17.88;74.90;100593.44;683828;28;156857;-65
2022/09/09 00:17:39;;;;;;;966.70;902.85;;;;;;;17.88;74.93;100597.00;686900;28;113670;-64
2022/09/09 00:18:04;;;;;;;975.25;910.97;;;;;;;17.87;74.85;100592.59;685620;28;137703;-64
2022/09/09 00:18:29;;;;;;;978.25;913.90;;;;;;;17.88;75.05;100594.28;686621;28;115087;-64
2022/09/09 00:18:57;;;;;;;977.47;913.10;;;;;;;17.89;75.10;100590.50;687447;28;90134;-64
2022/09/09 00:19:22;;;;;;;970.78;906.63;;;;;;;17.89;75.00;100593.22;685993;28;137698;-65
2022/09/09 00:19:50;;;;;;;970.42;906.33;;;;;;;17.88;74.90;100591.56;687631;28;92258;-64
2022/09/09 00:20:13;;;;;;;968.72;904.58;;;;;;;17.88;74.82;100591.56;685905;28;138288;-66
2022/09/09 00:20:39;;;;;;;974.35;910.05;;;;;;;17.88;74.63;100593.44;688386;28;69430;-65
2022/09/09 00:21:06;;;;;;;975.58;911.28;;;;;;;17.87;74.66;100592.59;686726;28;136436;-65
2022/09/09 00:21:32;;;;;;;968.20;904.17;;;;;;;17.87;74.76;100589.00;688399;28;138062;-65
2022/09/09 00:22:02;;;;;;;964.25;900.35;;;;;;;17.86;74.76;100592.81;663597;28;138013;-65
2022/09/09 00:22:25;;;;;;;978.80;914.30;;;;;;;17.87;74.64;100597.22;690396;28;159002;-65
2022/09/09 00:22:49;;;;;;;976.28;912.00;;;;;;;17.87;74.68;100586.28;693548;28;67584;-66
2022/09/09 00:23:12;;;;;;;969.92;905.72;;;;;;;17.85;74.78;100586.50;692668;28;90709;-65
2022/09/09 00:23:37;;;;;;;975.13;910.83;;;;;;;17.85;74.50;100594.72;692760;28;93041;-65
2022/09/09 00:23:59;;;;;;;971.45;907.13;;;;;;;17.85;74.57;100594.72;690557;28;115277;-64
2022/09/09 00:24:25;;;;;;;980.08;915.47;;;;;;;17.84;74.60;100590.31;692637;28;21514;-64
2022/09/09 00:24:50;;;;;;;965.88;901.92;;;;;;;17.84;74.86;100585.69;688610;28;137136;-64
2022/09/09 00:25:17;;;;;;;975.05;910.67;;;;;;;17.86;74.71;100590.91;689259;28;115109;-63
2022/09/09 00:25:45;;;;;;;967.90;903.80;;;;;;;17.85;74.77;100586.50;688740;28;137407;-64
2022/09/09 00:26:16;;;;;;;961.45;897.60;;;;;;;17.86;74.87;100588.19;688448;28;138550;-64
2022/09/09 00:26:41;;;;;;;971.83;907.63;;;;;;;17.85;74.78;100586.50;687771;28;160771;-64
2022/09/09 00:27:07;;;;;;;964.72;900.67;;;;;;;17.86;74.79;100585.47;687971;28;114974;-65
2022/09/09 00:27:32;;;;;;;976.28;911.83;;;;;;;17.86;74.83;100585.47;687626;28;160688;-64
2022/09/09 00:27:54;;;;;;;977.15;912.72;;;;;;;17.87;74.97;100578.09;689974;28;138085;-64
2022/09/09 00:28:20;;;;;;;972.25;908.00;;;;;;;17.87;75.00;100578.94;694554;28;44376;-64
2022/09/09 00:28:46;;;;;;;969.47;905.35;;;;;;;17.87;74.71;100584.41;694787;28;114899;-64
2022/09/09 00:29:17;;;;;;;972.30;908.05;;;;;;;17.86;74.66;100582.72;693823;28;136587;-64
2022/09/09 00:29:43;;;;;;;969.37;905.27;;;;;;;17.85;74.63;100575.59;693137;28;160778;-64
2022/09/09 00:30:18;;;;;;;972.63;908.42;;;;;;;17.85;74.84;100586.50;693995;28;137761;-64
2022/09/09 00:30:41;;;;;;;982.92;918.30;;;;;;;17.84;74.63;100584.88;688863;28;136013;-64
2022/09/09 00:31:11;;;;;;;979.28;914.90;;;;;;;17.83;74.65;100581.28;690545;28;67638;-64
2022/09/09 00:31:34;;;;;;;972.38;908.15;;;;;;;17.83;74.65;100581.28;685585;28;138427;-64
2022/09/09 00:31:57;;;;;;;973.08;908.78;;;;;;;17.83;74.65;100586.75;659243;28;45268;-65
2022/09/09 00:32:19;;;;;;;978.53;914.03;;;;;;;17.81;74.62;100580.69;681679;28;92600;-65
2022/09/09 00:32:44;;;;;;;973.28;908.97;;;;;;;17.81;74.61;100577.94;687071;28;37979;-65
2022/09/09 00:33:11;;;;;;;978.38;913.88;;;;;;;17.81;74.66;100588.06;688654;28;46644;-65
2022/09/09 00:33:33;;;;;;;976.05;911.67;;;;;;;17.78;74.55;100580.31;683525;28;137796;-66
2022/09/09 00:33:58;;;;;;;974.67;910.38;;;;;;;17.77;74.58;100579.50;688293;28;45229;-66
2022/09/09 00:34:21;;;;;;;984.30;919.60;;;;;;;17.76;74.73;100579.72;689023;28;115292;-65
2022/09/09 00:34:48;;;;;;;973.47;909.17;;;;;;;17.75;74.72;100567.13;690790;28;69424;-66
2022/09/09 00:35:18;;;;;;;969.70;905.55;;;;;;;17.78;74.72;100577.59;688613;28;138298;-65
2022/09/09 00:35:42;;;;;;;979.00;914.60;;;;;;;17.74;74.72;100571.75;688545;28;137591;-65
2022/09/09 00:36:06;;;;;;;970.60;906.58;;;;;;;17.75;75.00;100573.41;689539;28;94393;-66
2022/09/09 00:36:28;;;;;;;970.13;906.22;;;;;;;17.74;74.71;100574.47;687295;28;90693;-66
2022/09/09 00:36:52;;;;;;;975.25;911.22;;;;;;;17.73;74.88;100578.28;687883;28;44444;-65
2022/09/09 00:37:13;;;;;;;974.75;910.42;;;;;;;17.72;74.58;100571.13;687204;28;92814;-65
2022/09/09 00:37:35;;;;;;;977.78;913.45;;;;;;;17.75;74.89;100572.56;693412;28;22418;-65
2022/09/09 00:38:00;;;;;;;985.03;920.42;;;;;;;17.74;74.70;100570.91;694557;28;44348;-66
2022/09/09 00:38:25;;;;;;;975.53;911.30;;;;;;;17.74;74.87;100568.16;694470;28;115468;-66
2022/09/09 00:38:49;;;;;;;969.92;905.85;;;;;;;17.75;74.81;100569.84;694534;28;113571;-66
2022/09/09 00:39:13;;;;;;;967.77;903.70;;;;;;;17.76;74.81;100574.25;692525;28;92454;-65
2022/09/09 00:39:38;;;;;;;972.95;908.70;;;;;;;17.74;75.03;100574.47;691931;28;113577;-66
2022/09/09 00:40:03;;;;;;;970.13;905.95;;;;;;;17.76;74.91;100583.28;691864;28;115111;-65
2022/09/09 00:40:33;;;;;;;969.50;905.40;;;;;;;17.76;74.72;100571.53;689076;28;113098;-66
2022/09/09 00:40:59;;;;;;;970.92;906.83;;;;;;;17.75;74.84;100570.66;686318;28;137274;-64
2022/09/09 00:41:24;;;;;;;973.40;909.05;;;;;;;17.76;74.92;100571.53;685667;28;136570;-65
2022/09/09 00:42:03;;;;;;;974.42;910.17;;;;;;;17.76;74.78;100576.97;683208;28;115140;-65
2022/09/09 00:42:27;;;;;;;973.65;909.25;;;;;;;17.73;74.56;100575.53;685920;28;138815;-66
2022/09/09 00:42:51;;;;;;;972.13;907.92;;;;;;;17.73;74.79;100577.44;687140;28;92328;-67
2022/09/09 00:43:25;;;;;;;981.42;916.88;;;;;;;17.72;74.68;100570.31;689251;28;92515;-66
2022/09/09 00:43:56;;;;;;;974.03;909.80;;;;;;;17.70;74.59;100576.00;688550;28;135971;-66
2022/09/09 00:44:25;;;;;;;966.53;902.42;;;;;;;17.71;74.66;100574.94;688560;28;137758;-65
2022/09/09 00:44:53;;;;;;;972.20;907.90;;;;;;;17.70;74.82;100580.63;687535;28;138147;-65
2022/09/09 00:45:30;;;;;;;973.05;908.75;;;;;;;17.70;74.61;100570.53;687512;28;159202;-65
2022/09/09 00:46:18;;;;;;;968.78;904.65;;;;;;;17.69;74.64;100574.31;688399;28;137570;-66
2022/09/09 00:46:49;;;;;;;976.00;911.72;;;;;;;17.68;74.59;100580.00;689593;28;137952;-66
2022/09/09 00:47:35;;;;;;;981.78;916.83;;;;;;;17.67;74.85;100573.72;686437;28;158067;-66
2022/09/09 00:47:57;;;;;;;972.67;908.53;;;;;;;17.67;74.66;100572.88;691152;28;135994;-65
2022/09/09 00:48:20;;;;;;;979.00;914.60;;;;;;;17.65;74.80;100573.13;694351;28;45319;-66
2022/09/09 00:48:50;;;;;;;973.97;909.60;;;;;;;17.68;74.61;100575.41;693673;28;69408;-65
2022/09/09 00:49:20;;;;;;;974.30;909.78;;;;;;;17.68;74.35;100571.81;692386;28;116270;-65
2022/09/09 00:49:53;;;;;;;973.15;908.53;;;;;;;17.71;74.71;100574.09;691752;28;137783;-68
2022/09/09 00:50:30;;;;;;;968.10;903.63;;;;;;;17.71;74.83;100576.81;691628;28;137539;-64
2022/09/09 00:50:55;;;;;;;970.00;905.90;;;;;;;17.72;74.59;100581.22;691944;28;128883;-65
2022/09/09 00:51:24;;;;;;;978.35;913.83;;;;;;;17.70;74.56;100578.72;689644;28;115068;-65
2022/09/09 00:51:51;;;;;;;965.97;901.95;;;;;;;17.70;74.34;100575.16;688313;28;136177;-65
2022/09/09 00:52:24;;;;;;;975.00;910.65;;;;;;;17.68;74.59;100580.84;686168;28;136075;-65
2022/09/09 00:52:52;;;;;;;975.20;911.00;;;;;;;17.68;74.62;100574.53;685741;28;136057;-65
2022/09/09 00:53:27;;;;;;;979.08;914.63;;;;;;;17.67;74.82;100581.91;686121;28;137969;-65
2022/09/09 00:54:02;;;;;;;970.60;906.45;;;;;;;17.67;74.75;100581.09;688996;28;137958;-65
2022/09/09 00:54:34;;;;;;;976.53;912.17;;;;;;;17.65;74.58;100573.94;688909;28;137736;-65
2022/09/09 00:55:04;;;;;;;968.03;904.10;;;;;;;17.67;74.68;100578.34;689153;28;136038;-65
2022/09/09 00:55:32;;;;;;;973.30;909.13;;;;;;;17.64;74.59;100579.63;689448;28;137798;-65
2022/09/09 00:56:01;;;;;;;971.40;907.47;;;;;;;17.65;74.64;100576.69;686127;28;138010;-65
2022/09/09 00:56:26;;;;;;;959.65;896.03;;;;;;;17.65;74.59;100575.84;686391;28;138001;-65
2022/09/09 00:56:53;;;;;;;962.97;899.28;;;;;;;17.65;74.78;100573.94;688983;28;115104;-65
2022/09/09 00:57:24;;;;;;;983.72;918.78;;;;;;;17.66;74.65;100577.50;690566;28;138030;-65
2022/09/09 00:57:46;;;;;;;982.40;917.88;;;;;;;17.65;74.57;100573.94;691913;28;136040;-65
2022/09/09 00:58:08;;;;;;;979.15;914.78;;;;;;;17.65;74.54;100570.38;694978;28;46287;-65
2022/09/09 00:58:29;;;;;;;975.90;911.60;;;;;;;17.66;74.33;100580.22;697785;28;46194;-65
2022/09/09 00:58:58;;;;;;;979.53;915.08;;;;;;;17.64;74.42;100575.00;693615;28;23443;-65
2022/09/09 00:59:25;;;;;;;972.65;908.35;;;;;;;17.67;74.62;100570.97;686129;28;138044;-64
2022/09/09 00:59:49;;;;;;;976.72;912.40;;;;;;;17.66;74.35;100577.50;683725;28;136026;-64
2022/09/09 01:00:21;;;;;;;974.67;910.38;;;;;;;17.65;74.30;100575.84;683085;28;67267;-65
2022/09/09 01:00:45;;;;;;;977.42;913.10;;;;;;;17.62;74.19;100573.56;680853;28;158943;-65
2022/09/09 01:01:11;;;;;;;985.17;919.60;;;;;;;17.61;74.12;100580.91;681862;28;115158;-64
2022/09/09 01:01:32;;;;;;;976.95;912.30;;;;;;;17.59;74.34;100574.84;683637;28;161715;-65
2022/09/09 01:01:54;;;;;;;971.65;907.28;;;;;;;17.58;74.09;100575.06;688523;28;45227;-65
2022/09/09 01:02:27;;;;;;;973.38;909.05;;;;;;;17.57;74.30;100574.25;691691;28;22376;-65
2022/09/09 01:03:11;;;;;;;976.53;911.97;;;;;;;17.56;74.58;100574.47;684855;28;137423;-65
2022/09/09 01:03:35;;;;;;;979.55;915.05;;;;;;;17.57;74.57;100574.25;683674;28;160675;-65
2022/09/09 01:03:59;;;;;;;973.15;908.85;;;;;;;17.59;74.50;100580.31;687277;28;92228;-65
2022/09/09 01:04:28;;;;;;;976.47;912.08;;;;;;;17.54;74.56;100571.97;687582;28;92082;-65
2022/09/09 01:04:50;;;;;;;980.80;916.35;;;;;;;17.58;74.55;100583.28;687540;28;137675;-64
2022/09/09 01:05:15;;;;;;;975.03;910.58;;;;;;;17.57;74.78;100581.59;688912;28;44375;-64
2022/09/09 01:05:42;;;;;;;968.75;904.60;;;;;;;17.55;74.56;100570.91;687819;28;92117;-65
2022/09/09 01:06:15;;;;;;;982.08;917.50;;;;;;;17.55;74.56;100579.09;686300;28;138035;-65
2022/09/09 01:06:38;;;;;;;978.78;914.35;;;;;;;17.54;74.60;100582.91;686137;28;136109;-65
2022/09/09 01:07:05;;;;;;;981.10;916.38;;;;;;;17.56;74.59;100585.41;685315;28;67482;-64
2022/09/09 01:07:27;;;;;;;967.83;903.70;;;;;;;17.56;74.62;100579.94;686088;28;137875;-64
2022/09/09 01:07:48;;;;;;;980.22;915.85;;;;;;;17.57;74.39;100581.59;687276;28;23486;-64
2022/09/09 01:08:21;;;;;;;978.50;914.10;;;;;;;17.58;74.56;100588.72;683489;28;46606;-64
2022/09/09 01:08:53;;;;;;;978.80;914.25;;;;;;;17.58;74.50;100583.28;683331;28;137524;-64
2022/09/09 01:09:20;;;;;;;962.88;898.95;;;;;;;17.58;74.46;100584.09;686120;28;137528;-64
2022/09/09 01:09:51;;;;;;;976.72;912.33;;;;;;;17.55;74.30;100581.81;687575;28;138580;-64
2022/09/09 01:10:24;;;;;;;965.58;901.53;;;;;;;17.56;74.30;100585.41;687844;28;161182;-65
2022/09/09 01:10:49;;;;;;;974.47;910.13;;;;;;;17.54;74.39;100584.78;686134;28;136026;-64
2022/09/09 01:11:16;;;;;;;971.45;907.22;;;;;;;17.53;74.40;100588.59;686537;28;115041;-65
2022/09/09 01:11:49;;;;;;;977.83;913.40;;;;;;;17.52;74.35;100587.72;683475;28;138176;-64
2022/09/09 01:12:15;;;;;;;974.10;909.72;;;;;;;17.52;74.37;100578.72;680907;28;158022;-65
2022/09/09 01:12:41;;;;;;;975.03;910.78;;;;;;;17.52;74.53;100582.28;681901;28;137860;-64
2022/09/09 01:13:14;;;;;;;973.72;909.42;;;;;;;17.54;74.46;100582.03;680621;28;136109;-64
2022/09/09 01:13:36;;;;;;;977.13;912.72;;;;;;;17.56;74.54;100582.69;680097;28;137527;-65
2022/09/09 01:14:10;;;;;;;971.15;907.05;;;;;;;17.58;74.65;100588.72;682557;28;115457;-64
2022/09/09 01:14:41;;;;;;;974.13;909.92;;;;;;;17.58;74.57;100578.63;685321;28;136848;-65
2022/09/09 01:15:08;;;;;;;967.67;903.75;;;;;;;17.59;74.45;100579.50;683791;28;136130;-64
2022/09/09 01:15:32;;;;;;;973.58;909.50;;;;;;;17.61;74.44;100580.09;687063;28;137873;-64
2022/09/09 01:15:54;;;;;;;966.85;902.95;;;;;;;17.60;74.41;100582.00;689462;28;46434;-64
2022/09/09 01:16:17;;;;;;;964.47;900.55;;;;;;;17.62;74.46;100584.50;687594;28;46410;-64
2022/09/09 01:16:41;;;;;;;966.90;902.92;;;;;;;17.61;74.60;100583.63;683297;28;68307;-64
2022/09/09 01:17:07;;;;;;;963.80;899.55;;;;;;;17.63;74.13;100586.16;680834;28;90734;-64
2022/09/09 01:17:32;;;;;;;980.03;915.45;;;;;;;17.62;74.32;100582.59;679870;28;137567;-64
2022/09/09 01:18:07;;;;;;;970.38;906.22;;;;;;;17.62;74.30;100590.78;680884;28;136064;-64
2022/09/09 01:18:35;;;;;;;983.33;918.72;;;;;;;17.62;74.15;100585.31;678823;28;161073;-64
2022/09/09 01:18:56;;;;;;;969.25;905.05;;;;;;;17.59;74.02;100585.78;682732;28;115112;-64
2022/09/09 01:19:22;;;;;;;967.45;903.35;;;;;;;17.61;74.05;100588.28;687547;28;39289;-64
2022/09/09 01:19:54;;;;;;;972.20;907.90;;;;;;;17.61;74.10;100589.09;683602;28;138221;-64
2022/09/09 01:20:17;;;;;;;973.15;908.85;;;;;;;17.61;74.08;100586.38;683473;28;137548;-64
2022/09/09 01:20:53;;;;;;;978.17;913.70;;;;;;;17.60;74.04;100582.00;680931;28;137566;-64
2022/09/09 01:21:23;;;;;;;984.45;919.75;;;;;;;17.59;74.08;100580.31;682407;28;137520;-64
2022/09/09 01:21:50;;;;;;;977.72;913.35;;;;;;;17.58;73.95;100583.28;681908;28;160250;-64
2022/09/09 01:22:19;;;;;;;981.45;916.95;;;;;;;17.59;74.09;100582.22;685502;28;138484;-63
2022/09/09 01:22:50;;;;;;;974.17;909.92;;;;;;;17.59;74.07;100584.94;687697;28;136302;-65
2022/09/09 01:23:36;;;;;;;975.63;911.25;;;;;;;17.58;74.17;100584.09;687947;28;137919;-64
2022/09/09 01:24:22;;;;;;;981.95;917.40;;;;;;;17.55;73.95;100581.00;686289;28;137823;-64
2022/09/09 01:25:20;;;;;;;973.35;909.22;;;;;;;17.51;74.00;100577.91;686533;28;137498;-66
2022/09/09 01:26:17;;;;;;;980.78;916.28;;;;;;;17.51;74.02;100572.44;686153;28;138333;-64
2022/09/09 01:26:42;;;;;;;978.67;914.13;;;;;;;17.52;74.34;100585.00;683637;28;137773;-64
2022/09/09 01:27:10;;;;;;;970.72;906.42;;;;;;;17.53;74.38;100578.50;681704;28;157619;-64
2022/09/09 01:27:32;;;;;;;963.88;899.85;;;;;;;17.55;74.32;100589.19;683573;28;46565;-64
2022/09/09 01:27:56;;;;;;;976.10;911.80;;;;;;;17.55;74.24;100587.28;685049;28;44427;-64
2022/09/09 01:28:22;;;;;;;979.72;915.13;;;;;;;17.55;74.36;100581.81;684924;28;92119;-64
2022/09/09 01:28:47;;;;;;;977.97;913.47;;;;;;;17.57;74.12;100587.06;683163;28;136424;-63
2022/09/09 01:29:13;;;;;;;979.60;915.08;;;;;;;17.57;74.19;100581.59;686208;28;110739;-63
2022/09/09 01:29:37;;;;;;;986.85;922.05;;;;;;;17.57;74.12;100587.06;683535;28;139783;-65
2022/09/09 01:29:59;;;;;;;981.63;917.03;;;;;;;17.57;74.03;100587.06;685535;28;67375;-64
2022/09/09 01:30:22;;;;;;;973.38;909.10;;;;;;;17.57;73.99;100587.06;685075;28;90310;-65
2022/09/09 01:30:44;;;;;;;977.88;913.35;;;;;;;17.56;73.83;100586.22;686859;28;22367;-64
2022/09/09 01:31:11;;;;;;;981.78;917.17;;;;;;;17.55;73.91;100586.47;681032;28;113572;-64
2022/09/09 01:31:42;;;;;;;981.40;916.78;;;;;;;17.54;74.08;100584.78;683467;28;137803;-64
2022/09/09 01:32:39;;;;;;;973.03;908.83;;;;;;;17.55;73.90;100581.81;686957;28;115320;-64
2022/09/09 01:33:02;;;;;;;981.13;916.55;;;;;;;17.55;73.65;100587.28;689863;28;135973;-64
2022/09/09 01:33:24;;;;;;;979.13;914.55;;;;;;;17.54;73.92;100582.03;693576;28;67477;-63
2022/09/09 01:33:46;;;;;;;975.53;911.13;;;;;;;17.55;73.83;100589.19;689423;28;45334;-64
2022/09/09 01:34:10;;;;;;;978.35;913.95;;;;;;;17.53;73.86;100583.94;688979;28;45227;-63
2022/09/09 01:34:36;;;;;;;975.83;911.50;;;;;;;17.54;73.86;100582.03;685979;28;138258;-63
2022/09/09 01:34:57;;;;;;;975.50;911.28;;;;;;;17.55;73.72;100581.81;688504;28;114874;-63
2022/09/09 01:35:28;;;;;;;973.33;909.22;;;;;;;17.53;73.77;100583.94;689705;28;23474;-63
2022/09/09 01:35:54;;;;;;;980.95;916.60;;;;;;;17.53;73.88;100583.13;685793;28;136028;-64
2022/09/09 01:36:26;;;;;;;980.83;916.42;;;;;;;17.53;73.95;100583.94;683167;28;137887;-64
2022/09/09 01:36:52;;;;;;;986.88;922.22;;;;;;;17.53;73.88;100589.41;680070;28;135494;-63
2022/09/09 01:37:13;;;;;;;992.45;927.40;;;;;;;17.54;73.92;100584.78;679463;28;137961;-64
2022/09/09 01:37:35;;;;;;;982.08;917.42;;;;;;;17.55;73.96;100587.28;684381;28;45266;-64
2022/09/09 01:37:57;;;;;;;981.00;916.45;;;;;;;17.55;73.85;100578.25;687447;28;22368;-63
2022/09/09 01:38:18;;;;;;;984.13;919.40;;;;;;;17.55;73.86;100584.56;684347;28;21495;-63
2022/09/09 01:38:40;;;;;;;981.28;916.72;;;;;;;17.54;73.75;100579.31;680358;29;69604;-65
2022/09/09 01:39:02;;;;;;;981.30;916.80;;;;;;;17.55;73.59;100578.25;682644;28;22286;-64
2022/09/09 01:39:24;;;;;;;981.60;917.10;;;;;;;17.55;73.54;100587.28;684174;28;46285;-65
2022/09/09 01:39:53;;;;;;;979.08;914.58;;;;;;;17.55;73.58;100586.47;678109;28;137728;-64
2022/09/09 01:40:14;;;;;;;979.20;914.67;;;;;;;17.55;73.64;100589.19;683806;28;21520;-64
2022/09/09 01:40:37;;;;;;;976.65;912.33;;;;;;;17.56;73.52;100583.50;683603;28;23405;-65
2022/09/09 01:40:58;;;;;;;973.47;909.17;;;;;;;17.54;73.52;100580.16;683211;28;67430;-64
2022/09/09 01:41:30;;;;;;;987.25;922.50;;;;;;;17.54;73.24;100582.91;680920;28;137820;-64
2022/09/09 01:42:01;;;;;;;975.60;911.10;;;;;;;17.48;73.23;100581.06;676711;28;160628;-65
2022/09/09 01:42:23;;;;;;;983.97;919.15;;;;;;;17.52;73.50;100579.53;681498;28;69351;-64
2022/09/09 01:42:44;;;;;;;986.63;921.80;;;;;;;17.51;73.62;100572.44;686684;28;46438;-65
2022/09/09 01:43:06;;;;;;;987.33;922.50;;;;;;;17.53;73.78;100570.28;685683;28;23459;-64
2022/09/09 01:43:28;;;;;;;990.53;925.63;;;;;;;17.55;73.76;100573.63;683766;28;45241;-64
2022/09/09 01:43:51;;;;;;;992.75;927.83;;;;;;;17.59;73.88;100574.03;684761;28;46382;-64
2022/09/09 01:44:13;;;;;;;984.95;920.20;;;;;;;17.61;73.87;100571.91;686616;28;70158;-64
2022/09/09 01:44:38;;;;;;;985.17;920.47;;;;;;;17.64;73.78;100582.38;686987;28;115288;-64
2022/09/09 01:44:59;;;;;;;983.72;919.05;;;;;;;17.62;73.64;100568.13;687863;28;44304;-63
2022/09/09 01:45:22;;;;;;;975.70;911.30;;;;;;;17.69;73.63;100578.94;688589;28;22406;-63
2022/09/09 01:45:45;;;;;;;983.92;919.22;;;;;;;17.71;73.46;100577.66;685967;28;69239;-65
2022/09/09 01:46:06;;;;;;;988.40;923.60;;;;;;;17.72;73.46;100583.97;684055;28;69685;-63
2022/09/09 01:46:29;;;;;;;990.22;925.30;;;;;;;17.71;73.38;100577.66;682469;28;44322;-64
2022/09/09 01:46:51;;;;;;;990.95;926.13;;;;;;;17.70;73.17;100576.00;684182;28;44346;-64
2022/09/09 01:47:15;;;;;;;983.85;918.65;;;;;;;17.73;73.18;100580.19;684037;28;115169;-64
2022/09/09 01:48:05;;;;;;;985.83;921.25;;;;;;;17.73;72.94;100578.28;683151;28;137532;-64
2022/09/09 01:48:37;;;;;;;982.00;917.42;;;;;;;17.72;72.90;100575.75;683488;28;137593;-64
2022/09/09 01:49:04;;;;;;;977.65;913.22;;;;;;;17.72;72.36;100583.97;683256;28;136589;-64
2022/09/09 01:49:26;;;;;;;980.38;915.95;;;;;;;17.72;72.75;100579.31;682143;28;92287;-65
2022/09/09 01:49:48;;;;;;;974.63;910.38;;;;;;;17.72;72.71;100576.59;685030;28;16009;-65
2022/09/09 01:50:17;;;;;;;985.25;920.55;;;;;;;17.71;72.70;100574.94;680583;28;137869;-65
2022/09/09 01:50:38;;;;;;;990.50;925.60;;;;;;;17.71;72.78;100582.28;683633;28;45259;-65
2022/09/09 01:51:00;;;;;;;991.70;926.80;;;;;;;17.71;72.72;100577.66;685978;28;46503;-65
2022/09/09 01:51:22;;;;;;;984.97;920.28;;;;;;;17.71;72.50;100576.81;689049;28;22390;-65
2022/09/09 01:51:46;;;;;;;982.83;918.30;;;;;;;17.70;72.40;100576.00;688371;28;69410;-65
2022/09/09 01:52:09;;;;;;;981.92;917.35;;;;;;;17.69;72.25;100578.94;686860;28;133737;-65
2022/09/09 01:52:34;;;;;;;988.42;923.65;;;;;;;17.69;72.28;100581.69;689798;28;69864;-65
2022/09/09 01:52:58;;;;;;;985.90;921.40;;;;;;;17.67;72.34;100579.19;689568;28;69435;-65
2022/09/09 01:53:23;;;;;;;975.58;911.35;;;;;;;17.65;72.37;100579.41;686204;28;137738;-65
2022/09/09 01:53:45;;;;;;;975.97;911.78;;;;;;;17.65;72.16;100578.59;686385;28;46503;-65
2022/09/09 01:54:08;;;;;;;980.65;916.30;;;;;;;17.63;72.20;100577.94;687664;28;67463;-64
2022/09/09 01:54:31;;;;;;;978.17;913.88;;;;;;;17.65;72.20;100579.41;689297;28;44377;-65
2022/09/09 01:54:56;;;;;;;981.83;917.38;;;;;;;17.64;72.43;100582.38;681315;28;138007;-65
2022/09/09 01:55:28;;;;;;;981.58;916.97;;;;;;;17.62;72.31;100576.31;684910;28;130834;-65
2022/09/09 01:55:59;;;;;;;982.85;918.17;;;;;;;17.60;72.18;100578.41;688712;28;138024;-65
2022/09/09 01:56:29;;;;;;;985.78;921.03;;;;;;;17.57;72.44;100573.41;688613;28;138005;-64
2022/09/09 01:57:00;;;;;;;978.80;914.20;;;;;;;17.57;72.13;100576.97;682663;28;137305;-65
2022/09/09 01:57:25;;;;;;;980.75;915.90;;;;;;;17.56;72.18;100579.94;685412;28;136116;-65
2022/09/09 01:57:56;;;;;;;975.25;910.83;;;;;;;17.56;72.28;100579.94;685743;28;115088;-65
2022/09/09 01:58:28;;;;;;;979.08;914.55;;;;;;;17.57;72.38;100574.25;683278;28;136053;-65
2022/09/09 01:59:03;;;;;;;984.13;919.53;;;;;;;17.56;72.59;100579.94;683422;28;137493;-65
2022/09/09 01:59:48;;;;;;;980.65;916.17;;;;;;;17.54;72.38;100582.91;686006;28;60897;-65
2022/09/09 02:00:11;;;;;;;980.30;915.70;;;;;;;17.53;72.41;100581.22;682982;28;136150;-65
2022/09/09 02:00:42;;;;;;;978.08;913.63;;;;;;;17.51;72.31;100585.22;686278;28;136717;-65